sensor_id;sensor_type;location;lat;lon;timestamp;pressure;altitude;pressure_sealevel;temperature;humidity
49461;BME280;35355;49.198;-0.368;2023-06-19T00:00:10;100542.91;;;19.17;69.31
49461;BME280;35355;49.198;-0.368;2023-06-19T00:02:41;100535.91;;;19.10;69.44
49461;BME280;35355;49.198;-0.368;2023-06-19T00:05:08;100535.41;;;19.08;69.67
49461;BME280;35355;49.198;-0.368;2023-06-19T00:07:34;100536.84;;;19.06;69.40
49461;BME280;35355;49.198;-0.368;2023-06-19T00:10:00;100532.81;;;19.03;69.81
49461;BME280;35355;49.198;-0.368;2023-06-19T00:12:25;100529.53;;;19.01;69.73
49461;BME280;35355;49.198;-0.368;2023-06-19T00:14:50;100531.81;;;18.99;69.81
49461;BME280;35355;49.198;-0.368;2023-06-19T00:17:16;100527.09;;;19.00;69.84
49461;BME280;35355;49.198;-0.368;2023-06-19T00:19:42;100524.31;;;19.00;69.83
49461;BME280;35355;49.198;-0.368;2023-06-19T00:22:07;100526.63;;;18.98;69.80
49461;BME280;35355;49.198;-0.368;2023-06-19T00:24:33;100525.31;;;18.95;69.76
49461;BME280;35355;49.198;-0.368;2023-06-19T00:26:58;100538.00;;;18.96;69.97
49461;BME280;35355;49.198;-0.368;2023-06-19T00:29:31;100537.19;;;18.96;69.78
49461;BME280;35355;49.198;-0.368;2023-06-19T00:31:57;100534.72;;;18.94;69.66
49461;BME280;35355;49.198;-0.368;2023-06-19T00:34:22;100537.00;;;18.92;69.87
49461;BME280;35355;49.198;-0.368;2023-06-19T00:36:53;100530.16;;;18.89;69.76
49461;BME280;35355;49.198;-0.368;2023-06-19T00:39:23;100532.59;;;18.91;69.90
49461;BME280;35355;49.198;-0.368;2023-06-19T00:41:51;100532.59;;;18.91;69.97
49461;BME280;35355;49.198;-0.368;2023-06-19T00:44:16;100529.84;;;18.91;69.68
49461;BME280;35355;49.198;-0.368;2023-06-19T00:46:42;100540.44;;;18.89;69.77
49461;BME280;35355;49.198;-0.368;2023-06-19T00:49:08;100533.59;;;18.86;69.58
49461;BME280;35355;49.198;-0.368;2023-06-19T00:51:34;100531.13;;;18.85;69.34
49461;BME280;35355;49.198;-0.368;2023-06-19T00:53:59;100532.56;;;18.82;69.30
49461;BME280;35355;49.198;-0.368;2023-06-19T00:56:25;100534.03;;;18.80;69.29
49461;BME280;35355;49.198;-0.368;2023-06-19T00:58:52;100537.47;;;18.76;69.17
49461;BME280;35355;49.198;-0.368;2023-06-19T01:01:19;100542.47;;;18.74;69.31
49461;BME280;35355;49.198;-0.368;2023-06-19T01:03:46;100547.00;;;18.70;69.29
49461;BME280;35355;49.198;-0.368;2023-06-19T01:06:18;100544.41;;;18.65;69.12
49461;BME280;35355;49.198;-0.368;2023-06-19T01:08:58;100548.94;;;18.61;69.19
49461;BME280;35355;49.198;-0.368;2023-06-19T01:11:33;100548.78;;;18.57;69.23
49461;BME280;35355;49.198;-0.368;2023-06-19T01:14:09;100558.06;;;18.53;69.29
49461;BME280;35355;49.198;-0.368;2023-06-19T01:16:38;100561.44;;;18.50;69.38
49461;BME280;35355;49.198;-0.368;2023-06-19T01:19:05;100564.84;;;18.47;69.51
49461;BME280;35355;49.198;-0.368;2023-06-19T01:21:35;100565.47;;;18.44;69.58
49461;BME280;35355;49.198;-0.368;2023-06-19T01:24:01;100561.09;;;18.43;69.76
49461;BME280;35355;49.198;-0.368;2023-06-19T01:26:26;100567.75;;;18.41;69.78
49461;BME280;35355;49.198;-0.368;2023-06-19T01:28:52;100564.19;;;18.41;69.67
49461;BME280;35355;49.198;-0.368;2023-06-19T01:31:33;100559.59;;;18.36;69.47
49461;BME280;35355;49.198;-0.368;2023-06-19T01:34:00;100573.91;;;18.38;69.65
49461;BME280;35355;49.198;-0.368;2023-06-19T01:36:26;100566.75;;;18.37;69.81
49461;BME280;35355;49.198;-0.368;2023-06-19T01:38:55;100567.41;;;18.34;69.57
49461;BME280;35355;49.198;-0.368;2023-06-19T01:41:22;100569.03;;;18.35;69.82
49461;BME280;35355;49.198;-0.368;2023-06-19T01:43:49;100572.59;;;18.36;69.82
49461;BME280;35355;49.198;-0.368;2023-06-19T01:46:14;100569.03;;;18.35;69.77
49461;BME280;35355;49.198;-0.368;2023-06-19T01:48:40;100579.25;;;18.35;69.65
49461;BME280;35355;49.198;-0.368;2023-06-19T01:51:05;100577.66;;;18.34;69.68
49461;BME280;35355;49.198;-0.368;2023-06-19T01:53:31;100574.88;;;18.34;69.73
49461;BME280;35355;49.198;-0.368;2023-06-19T01:55:58;100592.75;;;18.36;70.18
49461;BME280;35355;49.198;-0.368;2023-06-19T01:58:23;100584.97;;;18.38;70.33
49461;BME280;35355;49.198;-0.368;2023-06-19T02:00:48;100584.34;;;18.41;70.44
49461;BME280;35355;49.198;-0.368;2023-06-19T02:03:14;100588.41;;;18.44;70.31
49461;BME280;35355;49.198;-0.368;2023-06-19T02:05:39;100584.69;;;18.49;70.42
49461;BME280;35355;49.198;-0.368;2023-06-19T02:08:05;100582.41;;;18.51;70.26
49461;BME280;35355;49.198;-0.368;2023-06-19T02:10:31;100577.88;;;18.55;70.37
49461;BME280;35355;49.198;-0.368;2023-06-19T02:12:57;100581.13;;;18.57;70.26
49461;BME280;35355;49.198;-0.368;2023-06-19T02:15:23;100577.25;;;18.58;70.18
49461;BME280;35355;49.198;-0.368;2023-06-19T02:17:48;100589.94;;;18.59;70.29
49461;BME280;35355;49.198;-0.368;2023-06-19T02:20:14;100582.44;;;18.59;70.21
49461;BME280;35355;49.198;-0.368;2023-06-19T02:22:41;100581.63;;;18.59;70.28
49461;BME280;35355;49.198;-0.368;2023-06-19T02:25:06;100584.09;;;18.61;70.09
49461;BME280;35355;49.198;-0.368;2023-06-19T02:27:32;100587.66;;;18.61;70.00
49461;BME280;35355;49.198;-0.368;2023-06-19T02:29:57;100590.41;;;18.61;70.08
49461;BME280;35355;49.198;-0.368;2023-06-19T02:32:23;100584.09;;;18.61;70.20
49461;BME280;35355;49.198;-0.368;2023-06-19T02:34:48;100571.72;;;18.58;70.03
49461;BME280;35355;49.198;-0.368;2023-06-19T02:37:14;100581.47;;;18.64;70.04
49461;BME280;35355;49.198;-0.368;2023-06-19T02:39:39;100565.84;;;18.59;70.04
49461;BME280;35355;49.198;-0.368;2023-06-19T02:42:05;100574.81;;;18.65;69.98
49461;BME280;35355;49.198;-0.368;2023-06-19T02:44:31;100574.34;;;18.63;69.97
49461;BME280;35355;49.198;-0.368;2023-06-19T02:46:56;100577.09;;;18.63;69.76
49461;BME280;35355;49.198;-0.368;2023-06-19T02:49:22;100583.75;;;18.62;69.83
49461;BME280;35355;49.198;-0.368;2023-06-19T02:51:47;100569.44;;;18.60;69.50
49461;BME280;35355;49.198;-0.368;2023-06-19T02:54:12;100575.47;;;18.62;69.73
49461;BME280;35355;49.198;-0.368;2023-06-19T02:56:41;100577.72;;;18.60;69.73
49461;BME280;35355;49.198;-0.368;2023-06-19T02:59:06;100574.47;;;18.58;69.67
49461;BME280;35355;49.198;-0.368;2023-06-19T03:01:32;100572.84;;;18.57;69.52
49461;BME280;35355;49.198;-0.368;2023-06-19T03:03:59;100571.72;;;18.58;69.54
49461;BME280;35355;49.198;-0.368;2023-06-19T03:06:27;100566.81;;;18.55;69.68
49461;BME280;35355;49.198;-0.368;2023-06-19T03:08:53;100566.81;;;18.55;69.81
49461;BME280;35355;49.198;-0.368;2023-06-19T03:11:18;100576.44;;;18.57;69.79
49461;BME280;35355;49.198;-0.368;2023-06-19T03:13:47;100569.72;;;18.50;69.67
49461;BME280;35355;49.198;-0.368;2023-06-19T03:16:12;100554.41;;;18.44;69.47
49461;BME280;35355;49.198;-0.368;2023-06-19T03:18:40;100572.03;;;18.56;69.49
49461;BME280;35355;49.198;-0.368;2023-06-19T03:21:05;100579.00;;;18.54;69.34
49461;BME280;35355;49.198;-0.368;2023-06-19T03:23:31;100574.63;;;18.53;69.53
49461;BME280;35355;49.198;-0.368;2023-06-19T03:25:56;100580.97;;;18.53;69.47
49461;BME280;35355;49.198;-0.368;2023-06-19T03:28:23;100567.28;;;18.48;69.46
49461;BME280;35355;49.198;-0.368;2023-06-19T03:30:51;100572.47;;;18.50;69.18
49461;BME280;35355;49.198;-0.368;2023-06-19T03:33:16;100568.09;;;18.49;69.69
49461;BME280;35355;49.198;-0.368;2023-06-19T03:35:42;100566.16;;;18.49;69.57
49461;BME280;35355;49.198;-0.368;2023-06-19T03:38:08;100576.88;;;18.51;69.74
49461;BME280;35355;49.198;-0.368;2023-06-19T03:40:33;100565.81;;;18.51;69.54
49461;BME280;35355;49.198;-0.368;2023-06-19T03:42:59;100567.28;;;18.48;69.49
49461;BME280;35355;49.198;-0.368;2023-06-19T03:45:24;100570.88;;;18.49;69.65
49461;BME280;35355;49.198;-0.368;2023-06-19T03:47:49;100567.44;;;18.43;69.56
49461;BME280;35355;49.198;-0.368;2023-06-19T03:50:15;100573.44;;;18.45;69.47
49461;BME280;35355;49.198;-0.368;2023-06-19T03:52:40;100576.53;;;18.44;69.64
49461;BME280;35355;49.198;-0.368;2023-06-19T03:55:06;100579.28;;;18.44;69.60
49461;BME280;35355;49.198;-0.368;2023-06-19T03:57:31;100582.06;;;18.44;69.61
49461;BME280;35355;49.198;-0.368;2023-06-19T03:59:57;100582.06;;;18.44;69.70
49461;BME280;35355;49.198;-0.368;2023-06-19T04:02:22;100582.06;;;18.44;69.67
49461;BME280;35355;49.198;-0.368;2023-06-19T04:04:48;100586.78;;;18.43;69.68
49461;BME280;35355;49.198;-0.368;2023-06-19T04:07:13;100587.59;;;18.44;69.76
49461;BME280;35355;49.198;-0.368;2023-06-19T04:09:39;100584.50;;;18.45;69.86
49461;BME280;35355;49.198;-0.368;2023-06-19T04:12:05;100584.50;;;18.45;69.86
49461;BME280;35355;49.198;-0.368;2023-06-19T04:14:31;100590.84;;;18.46;69.98
49461;BME280;35355;49.198;-0.368;2023-06-19T04:16:56;100587.47;;;18.49;70.04
49461;BME280;35355;49.198;-0.368;2023-06-19T04:19:21;100580.78;;;18.50;69.89
49461;BME280;35355;49.198;-0.368;2023-06-19T04:21:47;100578.53;;;18.52;69.94
49461;BME280;35355;49.198;-0.368;2023-06-19T04:24:12;100569.91;;;18.53;69.89
49461;BME280;35355;49.198;-0.368;2023-06-19T04:26:37;100566.03;;;18.54;69.73
49461;BME280;35355;49.198;-0.368;2023-06-19T04:29:03;100573.47;;;18.54;69.48
49461;BME280;35355;49.198;-0.368;2023-06-19T04:31:28;100583.72;;;18.53;69.66
49461;BME280;35355;49.198;-0.368;2023-06-19T04:33:55;100576.25;;;18.54;69.65
49461;BME280;35355;49.198;-0.368;2023-06-19T04:36:22;100586.50;;;18.53;69.52
49461;BME280;35355;49.198;-0.368;2023-06-19T04:38:48;100585.69;;;18.53;69.61
49461;BME280;35355;49.198;-0.368;2023-06-19T04:41:16;100595.59;;;18.54;69.67
49461;BME280;35355;49.198;-0.368;2023-06-19T04:43:42;100593.97;;;18.53;69.50
49461;BME280;35355;49.198;-0.368;2023-06-19T04:46:07;100600.00;;;18.55;69.74
49461;BME280;35355;49.198;-0.368;2023-06-19T04:48:33;100601.63;;;18.56;69.65
49461;BME280;35355;49.198;-0.368;2023-06-19T04:51:01;100600.16;;;18.58;69.93
49461;BME280;35355;49.198;-0.368;2023-06-19T04:53:27;100608.13;;;18.60;69.91
49461;BME280;35355;49.198;-0.368;2023-06-19T04:55:53;100607.00;;;18.61;69.99
49461;BME280;35355;49.198;-0.368;2023-06-19T04:58:20;100602.00;;;18.63;70.11
49461;BME280;35355;49.198;-0.368;2023-06-19T05:00:46;100611.25;;;18.67;70.12
49461;BME280;35355;49.198;-0.368;2023-06-19T05:03:16;100619.72;;;18.71;70.09
49461;BME280;35355;49.198;-0.368;2023-06-19T05:05:42;100616.31;;;18.74;70.15
49461;BME280;35355;49.198;-0.368;2023-06-19T05:08:07;100608.19;;;18.77;70.12
49461;BME280;35355;49.198;-0.368;2023-06-19T05:10:33;100611.94;;;18.82;70.14
49461;BME280;35355;49.198;-0.368;2023-06-19T05:12:58;100597.81;;;18.83;70.14
49461;BME280;35355;49.198;-0.368;2023-06-19T05:15:23;100599.97;;;18.86;70.19
49461;BME280;35355;49.198;-0.368;2023-06-19T05:17:49;100605.16;;;18.88;70.23
49461;BME280;35355;49.198;-0.368;2023-06-19T05:20:14;100610.03;;;18.91;70.21
49461;BME280;35355;49.198;-0.368;2023-06-19T05:22:40;100607.78;;;18.93;70.24
49461;BME280;35355;49.198;-0.368;2023-06-19T05:25:06;100600.81;;;18.96;70.04
49461;BME280;35355;49.198;-0.368;2023-06-19T05:27:32;100608.78;;;18.97;70.18
49461;BME280;35355;49.198;-0.368;2023-06-19T05:29:58;100607.31;;;19.00;70.24
49461;BME280;35355;49.198;-0.368;2023-06-19T05:32:23;100611.38;;;19.02;70.15
49461;BME280;35355;49.198;-0.368;2023-06-19T05:34:48;100606.34;;;19.04;70.16
49461;BME280;35355;49.198;-0.368;2023-06-19T05:37:16;100605.72;;;19.07;70.25
49461;BME280;35355;49.198;-0.368;2023-06-19T05:39:41;100605.72;;;19.07;70.24
49461;BME280;35355;49.198;-0.368;2023-06-19T05:42:07;100615.97;;;19.16;70.26
49461;BME280;35355;49.198;-0.368;2023-06-19T05:44:32;100613.38;;;19.19;69.97
49461;BME280;35355;49.198;-0.368;2023-06-19T05:46:58;100616.78;;;19.25;70.11
49461;BME280;35355;49.198;-0.368;2023-06-19T05:49:23;100621.06;;;19.31;70.08
49461;BME280;35355;49.198;-0.368;2023-06-19T05:51:48;100629.53;;;19.43;69.81
49461;BME280;35355;49.198;-0.368;2023-06-19T05:54:14;100629.19;;;19.71;69.41
49461;BME280;35355;49.198;-0.368;2023-06-19T05:56:39;100632.13;;;20.10;68.96
49461;BME280;35355;49.198;-0.368;2023-06-19T05:59:05;100641.25;;;20.58;68.23
49461;BME280;35355;49.198;-0.368;2023-06-19T06:01:38;100632.72;;;21.10;67.67
49461;BME280;35355;49.198;-0.368;2023-06-19T06:04:04;100633.31;;;21.67;65.76
49461;BME280;35355;49.198;-0.368;2023-06-19T06:06:30;100630.50;;;22.21;64.17
49461;BME280;35355;49.198;-0.368;2023-06-19T06:08:55;100632.69;;;22.62;62.81
49461;BME280;35355;49.198;-0.368;2023-06-19T06:11:21;100638.50;;;22.93;62.24
49461;BME280;35355;49.198;-0.368;2023-06-19T06:13:47;100633.88;;;23.10;61.34
49461;BME280;35355;49.198;-0.368;2023-06-19T06:16:12;100635.38;;;23.20;60.92
49461;BME280;35355;49.198;-0.368;2023-06-19T06:18:38;100630.38;;;23.25;60.34
49461;BME280;35355;49.198;-0.368;2023-06-19T06:21:03;100619.69;;;23.27;60.36
49461;BME280;35355;49.198;-0.368;2023-06-19T06:23:29;100622.91;;;23.42;60.19
49461;BME280;35355;49.198;-0.368;2023-06-19T06:25:55;100626.81;;;23.53;59.92
49461;BME280;35355;49.198;-0.368;2023-06-19T06:28:26;100622.38;;;23.64;59.21
49461;BME280;35355;49.198;-0.368;2023-06-19T06:30:52;100626.28;;;23.76;59.64
49461;BME280;35355;49.198;-0.368;2023-06-19T06:33:17;100626.72;;;23.90;58.86
49461;BME280;35355;49.198;-0.368;2023-06-19T06:35:43;100624.84;;;23.94;58.85
49461;BME280;35355;49.198;-0.368;2023-06-19T06:38:09;100628.81;;;23.81;59.07
49461;BME280;35355;49.198;-0.368;2023-06-19T06:40:34;100631.09;;;23.63;59.68
49461;BME280;35355;49.198;-0.368;2023-06-19T06:43:00;100647.03;;;23.50;60.13
49461;BME280;35355;49.198;-0.368;2023-06-19T06:45:25;100653.09;;;23.40;60.16
49461;BME280;35355;49.198;-0.368;2023-06-19T06:47:50;100654.53;;;23.21;60.86
49461;BME280;35355;49.198;-0.368;2023-06-19T06:50:16;100663.44;;;23.02;61.33
49461;BME280;35355;49.198;-0.368;2023-06-19T06:52:41;100655.66;;;22.83;61.25
49461;BME280;35355;49.198;-0.368;2023-06-19T06:55:07;100655.06;;;22.65;61.55
49461;BME280;35355;49.198;-0.368;2023-06-19T06:57:33;100663.97;;;22.46;62.05
49461;BME280;35355;49.198;-0.368;2023-06-19T06:59:58;100667.13;;;22.23;62.59
49461;BME280;35355;49.198;-0.368;2023-06-19T07:02:23;100666.13;;;22.07;62.74
49461;BME280;35355;49.198;-0.368;2023-06-19T07:04:49;100668.41;;;21.93;63.38
49461;BME280;35355;49.198;-0.368;2023-06-19T07:07:14;100671.13;;;21.80;63.50
49461;BME280;35355;49.198;-0.368;2023-06-19T07:09:40;100673.16;;;21.71;64.00
49461;BME280;35355;49.198;-0.368;2023-06-19T07:12:06;100676.16;;;21.66;64.49
49461;BME280;35355;49.198;-0.368;2023-06-19T07:14:32;100686.16;;;21.58;64.48
49461;BME280;35355;49.198;-0.368;2023-06-19T07:16:58;100690.13;;;21.48;65.14
49461;BME280;35355;49.198;-0.368;2023-06-19T07:19:23;100687.88;;;21.42;65.15
49461;BME280;35355;49.198;-0.368;2023-06-19T07:21:51;100681.25;;;21.34;65.12
49461;BME280;35355;49.198;-0.368;2023-06-19T07:24:17;100695.78;;;21.31;65.36
49461;BME280;35355;49.198;-0.368;2023-06-19T07:26:43;100695.16;;;21.25;65.98
49461;BME280;35355;49.198;-0.368;2023-06-19T07:29:08;100687.84;;;21.20;66.22
49461;BME280;35355;49.198;-0.368;2023-06-19T07:31:33;100698.16;;;21.20;66.07
49461;BME280;35355;49.198;-0.368;2023-06-19T07:33:59;100697.66;;;21.18;66.08
49461;BME280;35355;49.198;-0.368;2023-06-19T07:36:24;100698.00;;;21.16;66.28
49461;BME280;35355;49.198;-0.368;2023-06-19T07:38:49;100695.56;;;21.15;66.20
49461;BME280;35355;49.198;-0.368;2023-06-19T07:41:15;100697.53;;;21.14;66.54
49461;BME280;35355;49.198;-0.368;2023-06-19T07:43:40;100700.28;;;21.14;66.56
49461;BME280;35355;49.198;-0.368;2023-06-19T07:46:05;100706.19;;;21.13;66.82
49461;BME280;35355;49.198;-0.368;2023-06-19T07:48:31;100705.34;;;21.12;66.87
49461;BME280;35355;49.198;-0.368;2023-06-19T07:50:56;100702.56;;;21.12;67.17
49461;BME280;35355;49.198;-0.368;2023-06-19T07:53:22;100714.00;;;21.11;66.84
49461;BME280;35355;49.198;-0.368;2023-06-19T07:55:47;100705.22;;;21.09;67.23
49461;BME280;35355;49.198;-0.368;2023-06-19T07:58:13;100706.34;;;21.08;67.45
49461;BME280;35355;49.198;-0.368;2023-06-19T08:00:38;100700.00;;;21.07;67.37
49461;BME280;35355;49.198;-0.368;2023-06-19T08:03:04;100692.81;;;21.06;67.38
49461;BME280;35355;49.198;-0.368;2023-06-19T08:05:30;100685.63;;;21.05;67.01
49461;BME280;35355;49.198;-0.368;2023-06-19T08:07:56;100694.44;;;21.07;67.25
49461;BME280;35355;49.198;-0.368;2023-06-19T08:10:22;100690.53;;;21.08;67.32
49461;BME280;35355;49.198;-0.368;2023-06-19T08:12:47;100699.00;;;21.12;67.29
49461;BME280;35355;49.198;-0.368;2023-06-19T08:15:16;100699.97;;;21.16;67.25
49461;BME280;35355;49.198;-0.368;2023-06-19T08:17:42;100704.50;;;21.20;67.42
49461;BME280;35355;49.198;-0.368;2023-06-19T08:20:08;100711.47;;;21.27;67.46
49461;BME280;35355;49.198;-0.368;2023-06-19T08:22:36;100709.97;;;21.38;67.11
49461;BME280;35355;49.198;-0.368;2023-06-19T08:25:03;100704.81;;;21.49;66.92
49461;BME280;35355;49.198;-0.368;2023-06-19T08:27:28;100703.16;;;21.57;66.96
49461;BME280;35355;49.198;-0.368;2023-06-19T08:29:54;100705.25;;;21.60;66.55
49461;BME280;35355;49.198;-0.368;2023-06-19T08:32:22;100698.84;;;21.68;66.46
49461;BME280;35355;49.198;-0.368;2023-06-19T08:34:48;100693.06;;;21.73;66.38
49461;BME280;35355;49.198;-0.368;2023-06-19T08:37:13;100686.19;;;21.79;66.18
49461;BME280;35355;49.198;-0.368;2023-06-19T08:39:39;100689.19;;;21.86;66.36
49461;BME280;35355;49.198;-0.368;2023-06-19T08:42:08;100685.09;;;21.93;66.26
49461;BME280;35355;49.198;-0.368;2023-06-19T08:44:40;100674.88;;;21.97;65.32
49461;BME280;35355;49.198;-0.368;2023-06-19T08:47:08;100674.69;;;22.02;65.21
49461;BME280;35355;49.198;-0.368;2023-06-19T08:49:35;100689.91;;;22.17;65.65
49461;BME280;35355;49.198;-0.368;2023-06-19T08:52:03;100679.84;;;22.24;65.16
49461;BME280;35355;49.198;-0.368;2023-06-19T08:54:30;100686.03;;;22.30;64.86
49461;BME280;35355;49.198;-0.368;2023-06-19T08:56:55;100681.09;;;22.36;64.67
49461;BME280;35355;49.198;-0.368;2023-06-19T08:59:25;100681.69;;;22.41;64.93
49461;BME280;35355;49.198;-0.368;2023-06-19T09:01:52;100681.59;;;22.50;64.72
49461;BME280;35355;49.198;-0.368;2023-06-19T09:04:20;100683.34;;;22.55;64.49
49461;BME280;35355;49.198;-0.368;2023-06-19T09:06:54;100690.09;;;22.66;64.19
49461;BME280;35355;49.198;-0.368;2023-06-19T09:09:24;100686.97;;;22.68;63.63
49461;BME280;35355;49.198;-0.368;2023-06-19T09:12:08;100694.28;;;22.72;63.88
49461;BME280;35355;49.198;-0.368;2023-06-19T09:14:41;100692.44;;;22.76;63.31
49461;BME280;35355;49.198;-0.368;2023-06-19T09:17:11;100698.09;;;22.80;63.45
49461;BME280;35355;49.198;-0.368;2023-06-19T09:19:37;100689.75;;;22.80;62.85
49461;BME280;35355;49.198;-0.368;2023-06-19T09:22:04;100691.16;;;22.86;62.84
49461;BME280;35355;49.198;-0.368;2023-06-19T09:24:40;100686.50;;;22.90;63.10
49461;BME280;35355;49.198;-0.368;2023-06-19T09:27:11;100683.97;;;22.98;62.72
49461;BME280;35355;49.198;-0.368;2023-06-19T09:29:43;100677.56;;;22.97;62.11
49461;BME280;35355;49.198;-0.368;2023-06-19T09:34:40;100677.34;;;23.02;61.53
49461;BME280;35355;49.198;-0.368;2023-06-19T09:37:06;100676.19;;;23.03;61.62
49461;BME280;35355;49.198;-0.368;2023-06-19T09:39:34;100678.16;;;23.03;61.16
49461;BME280;35355;49.198;-0.368;2023-06-19T09:42:01;100679.34;;;23.02;61.09
49461;BME280;35355;49.198;-0.368;2023-06-19T09:44:31;100684.91;;;23.02;61.18
49461;BME280;35355;49.198;-0.368;2023-06-19T09:46:59;100679.34;;;23.02;61.27
49461;BME280;35355;49.198;-0.368;2023-06-19T09:49:31;100680.50;;;23.01;61.61
49461;BME280;35355;49.198;-0.368;2023-06-19T09:52:01;100687.44;;;23.07;61.72
49461;BME280;35355;49.198;-0.368;2023-06-19T09:54:28;100677.00;;;23.04;61.71
49461;BME280;35355;49.198;-0.368;2023-06-19T09:56:55;100681.88;;;23.07;61.64
49461;BME280;35355;49.198;-0.368;2023-06-19T09:59:24;100694.91;;;23.15;61.74
49461;BME280;35355;49.198;-0.368;2023-06-19T10:01:50;100692.34;;;23.22;61.69
49461;BME280;35355;49.198;-0.368;2023-06-19T10:04:17;100701.25;;;23.28;61.66
49461;BME280;35355;49.198;-0.368;2023-06-19T10:06:45;100694.66;;;23.33;61.27
49461;BME280;35355;49.198;-0.368;2023-06-19T10:09:11;100689.53;;;23.35;60.75
49461;BME280;35355;49.198;-0.368;2023-06-19T10:11:47;100681.91;;;23.32;61.16
49461;BME280;35355;49.198;-0.368;2023-06-19T10:14:13;100686.75;;;23.35;60.65
49461;BME280;35355;49.198;-0.368;2023-06-19T10:16:40;100684.44;;;23.37;60.45
49461;BME280;35355;49.198;-0.368;2023-06-19T10:19:20;100677.25;;;23.36;60.73
49461;BME280;35355;49.198;-0.368;2023-06-19T10:21:47;100677.25;;;23.36;59.96
49461;BME280;35355;49.198;-0.368;2023-06-19T10:24:14;100675.63;;;23.35;60.09
49461;BME280;35355;49.198;-0.368;2023-06-19T10:26:41;100666.69;;;23.29;59.94
49461;BME280;35355;49.198;-0.368;2023-06-19T10:29:18;100671.47;;;23.28;60.55
49461;BME280;35355;49.198;-0.368;2023-06-19T10:31:46;100661.91;;;23.29;60.64
49461;BME280;35355;49.198;-0.368;2023-06-19T10:34:11;100668.41;;;23.34;60.16
49461;BME280;35355;49.198;-0.368;2023-06-19T10:36:37;100668.19;;;23.39;60.47
49461;BME280;35355;49.198;-0.368;2023-06-19T10:39:05;100661.91;;;23.42;60.30
49461;BME280;35355;49.198;-0.368;2023-06-19T10:41:32;100660.84;;;23.46;59.43
49461;BME280;35355;49.198;-0.368;2023-06-19T10:44:03;100657.00;;;23.51;59.06
49461;BME280;35355;49.198;-0.368;2023-06-19T10:46:31;100659.91;;;23.55;59.27
49461;BME280;35355;49.198;-0.368;2023-06-19T10:49:00;100650.50;;;23.59;59.12
49461;BME280;35355;49.198;-0.368;2023-06-19T10:51:42;100651.03;;;23.65;59.42
49461;BME280;35355;49.198;-0.368;2023-06-19T10:54:13;100656.59;;;23.77;58.77
49461;BME280;35355;49.198;-0.368;2023-06-19T10:56:38;100655.53;;;23.82;58.35
49461;BME280;35355;49.198;-0.368;2023-06-19T10:59:06;100644.38;;;23.82;58.35
49461;BME280;35355;49.198;-0.368;2023-06-19T11:01:42;100650.53;;;23.88;58.60
49461;BME280;35355;49.198;-0.368;2023-06-19T11:04:09;100651.09;;;23.93;58.19
49461;BME280;35355;49.198;-0.368;2023-06-19T11:06:36;100644.34;;;23.94;57.29
49461;BME280;35355;49.198;-0.368;2023-06-19T11:09:06;100645.81;;;24.04;56.98
49461;BME280;35355;49.198;-0.368;2023-06-19T11:11:50;100650.25;;;24.05;57.92
49461;BME280;35355;49.198;-0.368;2023-06-19T11:14:16;100645.19;;;24.11;56.08
49461;BME280;35355;49.198;-0.368;2023-06-19T11:16:44;100636.81;;;24.11;55.50
49461;BME280;35355;49.198;-0.368;2023-06-19T11:19:16;100646.81;;;24.12;56.15
49461;BME280;35355;49.198;-0.368;2023-06-19T11:21:45;100640.88;;;24.13;56.00
49461;BME280;35355;49.198;-0.368;2023-06-19T11:24:12;100638.22;;;24.17;56.18
49461;BME280;35355;49.198;-0.368;2023-06-19T11:26:44;100636.06;;;24.26;55.62
49461;BME280;35355;49.198;-0.368;2023-06-19T11:29:21;100633.53;;;24.37;55.93
49461;BME280;35355;49.198;-0.368;2023-06-19T11:31:47;100633.38;;;24.46;59.00
49461;BME280;35355;49.198;-0.368;2023-06-19T11:34:15;100637.72;;;24.59;55.54
49461;BME280;35355;49.198;-0.368;2023-06-19T11:36:41;100629.09;;;24.64;54.82
49461;BME280;35355;49.198;-0.368;2023-06-19T11:39:15;100632.31;;;24.66;55.24
49461;BME280;35355;49.198;-0.368;2023-06-19T11:41:44;100627.47;;;24.63;54.43
49461;BME280;35355;49.198;-0.368;2023-06-19T11:44:09;100629.91;;;24.65;54.13
49461;BME280;35355;49.198;-0.368;2023-06-19T11:46:36;100624.31;;;24.65;53.87
49461;BME280;35355;49.198;-0.368;2023-06-19T11:49:11;100618.13;;;24.72;54.67
49461;BME280;35355;49.198;-0.368;2023-06-19T11:51:37;100613.41;;;24.76;53.02
49461;BME280;35355;49.198;-0.368;2023-06-19T11:54:07;100605.31;;;24.71;53.20
49461;BME280;35355;49.198;-0.368;2023-06-19T11:56:37;100607.38;;;24.74;52.71
49461;BME280;35355;49.198;-0.368;2023-06-19T11:59:06;100598.09;;;24.69;52.63
49461;BME280;35355;49.198;-0.368;2023-06-19T12:01:36;100598.94;;;24.70;53.38
49461;BME280;35355;49.198;-0.368;2023-06-19T12:04:02;100592.09;;;24.67;53.16
49461;BME280;35355;49.198;-0.368;2023-06-19T12:06:29;100599.00;;;24.74;53.07
49461;BME280;35355;49.198;-0.368;2023-06-19T12:08:55;100595.06;;;24.75;53.32
49461;BME280;35355;49.198;-0.368;2023-06-19T12:11:20;100578.88;;;24.64;53.19
49461;BME280;35355;49.198;-0.368;2023-06-19T12:13:48;100579.03;;;24.72;53.48
49461;BME280;35355;49.198;-0.368;2023-06-19T12:16:14;100572.72;;;24.75;53.63
49461;BME280;35355;49.198;-0.368;2023-06-19T12:18:40;100585.22;;;24.81;53.57
49461;BME280;35355;49.198;-0.368;2023-06-19T12:21:06;100569.63;;;24.80;53.02
49461;BME280;35355;49.198;-0.368;2023-06-19T12:23:32;100575.31;;;24.83;52.37
49461;BME280;35355;49.198;-0.368;2023-06-19T12:25:57;100578.47;;;24.82;52.32
49461;BME280;35355;49.198;-0.368;2023-06-19T12:28:23;100569.22;;;24.78;52.70
49461;BME280;35355;49.198;-0.368;2023-06-19T12:30:48;100572.16;;;24.85;52.26
49461;BME280;35355;49.198;-0.368;2023-06-19T12:33:20;100569.81;;;24.87;52.07
49461;BME280;35355;49.198;-0.368;2023-06-19T12:35:52;100566.06;;;24.79;51.74
49461;BME280;35355;49.198;-0.368;2023-06-19T12:38:17;100566.59;;;24.85;52.32
49461;BME280;35355;49.198;-0.368;2023-06-19T12:40:49;100569.81;;;24.87;52.52